Time;durP1;ratioP1;P1;durP2;ratioP2;P2;SDS_P1;SDS_P2;PMS_P1;PMS_P2;Temp;Humidity;BMP_temperature;BMP_pressure;BME280_temperature;BME280_humidity;BME280_pressure;Samples;Min_cycle;Max_cycle;Signal;HPM_P1;HPM_P2
2023/04/09 00:01:05;;;;;;;26.63;14.88;;;6.20;99.90;;;;;;4948904;28;20373;-65
2023/04/09 00:03:31;;;;;;;27.35;14.45;;;6.20;99.90;;;;;;4948755;28;20610;-65
2023/04/09 00:05:56;;;;;;;27.30;16.20;;;6.10;99.90;;;;;;4950824;28;20027;-64
2023/04/09 00:08:25;;;;;;;29.08;16.42;;;6.00;99.90;;;;;;4949339;28;20118;-65
2023/04/09 00:10:52;;;;;;;28.20;15.57;;;6.00;99.90;;;;;;4948165;28;20074;-65
2023/04/09 00:13:19;;;;;;;27.60;15.40;;;6.00;99.90;;;;;;4947183;28;20047;-65
2023/04/09 00:15:45;;;;;;;24.27;14.73;;;5.90;99.90;;;;;;4945501;28;20031;-65
2023/04/09 00:18:12;;;;;;;27.15;15.95;;;5.90;99.90;;;;;;4948449;28;20035;-65
2023/04/09 00:20:38;;;;;;;32.22;17.23;;;5.90;99.90;;;;;;4948223;28;20039;-65
2023/04/09 00:23:04;;;;;;;28.67;15.52;;;5.80;99.90;;;;;;4948232;28;20684;-65
2023/04/09 00:25:29;;;;;;;29.05;17.00;;;5.80;99.90;;;;;;4946817;28;20125;-65
2023/04/09 00:27:56;;;;;;;32.10;16.95;;;5.80;99.90;;;;;;4945828;28;20027;-65
2023/04/09 00:30:22;;;;;;;33.97;16.98;;;5.70;99.90;;;;;;4945223;28;20090;-65
2023/04/09 00:32:48;;;;;;;33.03;16.92;;;5.70;99.90;;;;;;4948862;28;20031;-65
2023/04/09 00:35:16;;;;;;;40.28;18.83;;;5.60;99.90;;;;;;4947648;28;20284;-65
2023/04/09 00:37:42;;;;;;;39.60;18.90;;;5.60;99.90;;;;;;4945718;28;20127;-64
2023/04/09 00:40:08;;;;;;;34.35;17.70;;;5.50;99.90;;;;;;4947536;28;20104;-64
2023/04/09 00:42:36;;;;;;;37.40;18.50;;;5.40;99.90;;;;;;4943906;28;20725;-65
2023/04/09 00:45:06;;;;;;;35.30;19.77;;;5.40;99.90;;;;;;4947122;28;20090;-65
2023/04/09 00:47:33;;;;;;;39.47;19.55;;;5.40;99.90;;;;;;4943431;28;20079;-65
2023/04/09 00:50:00;;;;;;;41.00;20.42;;;5.30;99.90;;;;;;4945080;28;20037;-65
2023/04/09 00:52:26;;;;;;;40.65;21.55;;;5.30;99.90;;;;;;4946221;28;20070;-65
2023/04/09 00:54:53;;;;;;;37.60;19.17;;;5.20;99.90;;;;;;4945256;28;20042;-65
2023/04/09 00:57:19;;;;;;;36.92;18.88;;;5.20;99.90;;;;;;4944822;28;20042;-65
2023/04/09 00:59:45;;;;;;;40.33;20.35;;;5.20;99.90;;;;;;4943796;28;20434;-65
2023/04/09 01:02:11;;;;;;;31.67;17.70;;;5.20;99.90;;;;;;4945183;28;20035;-65
2023/04/09 01:04:40;;;;;;;28.08;16.27;;;5.20;99.90;;;;;;4943221;28;20032;-65
2023/04/09 01:07:31;;;;;;;32.28;16.27;;;5.20;99.90;;;;;;4945048;28;20686;-65
2023/04/09 01:10:23;;;;;;;29.42;15.88;;;5.10;99.90;;;;;;4947491;28;20038;-65
2023/04/09 01:13:06;;;;;;;29.35;14.90;;;5.00;99.90;;;;;;4942969;28;20035;-65
2023/04/09 01:15:36;;;;;;;29.08;15.85;;;5.00;99.90;;;;;;4944716;28;20069;-65
2023/04/09 01:18:18;;;;;;;31.45;16.40;;;5.00;99.90;;;;;;4948406;28;20206;-65
2023/04/09 01:21:07;;;;;;;33.83;17.77;;;4.90;99.90;;;;;;4946012;28;20031;-65
2023/04/09 01:23:48;;;;;;;31.25;17.40;;;4.90;99.90;;;;;;4932684;29;20110;-65
2023/04/09 01:26:46;;;;;;;33.30;17.33;;;4.90;99.90;;;;;;4944584;28;20035;-65
2023/04/09 01:29:16;;;;;;;32.30;17.05;;;4.80;99.90;;;;;;4944597;28;20452;-65
2023/04/09 01:31:44;;;;;;;36.67;17.88;;;4.80;99.90;;;;;;4930551;29;20066;-65
2023/04/09 01:34:11;;;;;;;32.75;18.38;;;4.80;99.90;;;;;;4930400;28;20665;-65
2023/04/09 01:36:39;;;;;;;37.33;20.42;;;4.80;99.90;;;;;;4929768;29;20063;-65
2023/04/09 01:39:05;;;;;;;37.25;18.50;;;4.90;99.90;;;;;;4944025;28;20037;-65
2023/04/09 01:41:34;;;;;;;33.90;18.45;;;4.90;99.90;;;;;;4938538;28;20032;-65
2023/04/09 01:44:02;;;;;;;31.08;17.05;;;4.90;99.90;;;;;;4930090;29;20077;-64
2023/04/09 01:46:29;;;;;;;34.65;19.60;;;4.90;99.90;;;;;;4929829;28;20139;-65
2023/04/09 01:48:56;;;;;;;36.38;19.38;;;4.90;99.90;;;;;;4939396;28;20027;-65
2023/04/09 01:51:22;;;;;;;32.75;17.15;;;5.00;99.90;;;;;;4930322;28;20031;-65
2023/04/09 01:53:48;;;;;;;28.30;17.23;;;5.00;99.90;;;;;;4944966;28;20042;-65
2023/04/09 01:56:14;;;;;;;28.95;16.90;;;4.90;99.90;;;;;;4943996;28;20051;-65
2023/04/09 01:58:40;;;;;;;32.55;16.63;;;5.00;99.90;;;;;;4932114;29;20062;-65
2023/04/09 02:01:15;;;;;;;25.67;15.35;;;5.00;99.90;;;;;;4930891;28;20062;-65
2023/04/09 02:04:08;;;;;;;31.05;14.65;;;4.80;99.90;;;;;;4946510;28;20350;-65
2023/04/09 02:06:46;;;;;;;29.25;14.50;;;4.80;99.90;;;;;;4929329;29;20122;-65
2023/04/09 02:09:15;;;;;;;26.45;14.85;;;4.60;99.90;;;;;;4938457;29;20031;-65
2023/04/09 02:11:45;;;;;;;27.98;15.45;;;4.60;99.90;;;;;;4945585;28;20431;-65
2023/04/09 02:14:11;;;;;;;28.02;15.48;;;4.50;99.90;;;;;;4933963;28;20055;-65
2023/04/09 02:16:38;;;;;;;24.67;13.32;;;4.50;99.90;;;;;;4941523;28;20139;-65
2023/04/09 02:19:04;;;;;;;24.48;14.52;;;4.40;99.90;;;;;;4931397;29;20329;-65
2023/04/09 02:21:31;;;;;;;25.60;14.27;;;4.40;99.90;;;;;;4934065;29;20035;-65
2023/04/09 02:23:57;;;;;;;28.20;15.60;;;4.40;99.90;;;;;;4934665;29;20038;-65
2023/04/09 02:26:23;;;;;;;25.67;13.90;;;4.40;99.90;;;;;;4934847;28;20041;-65
2023/04/09 02:28:49;;;;;;;27.90;16.35;;;4.40;99.90;;;;;;4943355;28;20035;-65
2023/04/09 02:31:15;;;;;;;26.65;15.00;;;4.30;99.90;;;;;;4934161;28;20877;-65
2023/04/09 02:33:41;;;;;;;30.48;17.02;;;4.20;99.90;;;;;;4947326;28;20082;-64
2023/04/09 02:36:11;;;;;;;27.63;15.98;;;4.20;99.90;;;;;;4933197;28;20039;-64
2023/04/09 02:38:42;;;;;;;33.50;17.15;;;4.20;99.90;;;;;;4944300;28;20031;-64
2023/04/09 02:41:08;;;;;;;30.63;16.25;;;4.20;99.90;;;;;;4948520;28;20039;-65
2023/04/09 02:43:34;;;;;;;27.33;14.82;;;4.10;99.90;;;;;;4948848;28;20027;-64
2023/04/09 02:46:00;;;;;;;27.17;14.63;;;4.10;99.90;;;;;;4948049;28;20057;-65
2023/04/09 02:48:26;;;;;;;28.88;15.02;;;4.10;99.90;;;;;;4930562;28;20071;-64
2023/04/09 02:50:53;;;;;;;29.58;16.38;;;4.00;99.90;;;;;;4947847;28;20031;-64
2023/04/09 02:53:20;;;;;;;34.38;17.67;;;4.00;99.90;;;;;;4931291;28;20043;-64
2023/04/09 02:55:46;;;;;;;31.25;17.13;;;3.90;99.90;;;;;;4930224;29;20035;-64
2023/04/09 02:58:12;;;;;;;29.98;16.77;;;4.00;99.90;;;;;;4948167;28;20035;-65
2023/04/09 03:00:38;;;;;;;28.38;15.70;;;4.00;99.90;;;;;;4932321;29;20035;-65
2023/04/09 03:03:04;;;;;;;28.80;15.60;;;3.90;99.90;;;;;;4931149;28;20065;-65
2023/04/09 03:05:30;;;;;;;26.75;14.95;;;3.90;99.90;;;;;;4929640;29;20102;-64
2023/04/09 03:07:56;;;;;;;28.52;14.90;;;3.90;99.90;;;;;;4933843;29;20028;-65
2023/04/09 03:10:22;;;;;;;26.00;15.05;;;3.90;99.90;;;;;;4946545;28;20134;-64
2023/04/09 03:12:48;;;;;;;35.75;18.63;;;3.80;99.90;;;;;;4946005;28;21047;-64
2023/04/09 03:15:13;;;;;;;35.53;18.70;;;3.90;99.90;;;;;;4944804;28;20043;-64
2023/04/09 03:17:39;;;;;;;31.13;17.83;;;3.90;99.90;;;;;;4944594;28;20082;-64
2023/04/09 03:20:06;;;;;;;32.17;17.65;;;4.00;99.90;;;;;;4947757;28;20142;-65
2023/04/09 03:22:36;;;;;;;32.15;18.48;;;4.00;99.90;;;;;;4945862;28;20038;-64
2023/04/09 03:25:05;;;;;;;35.72;18.27;;;4.10;99.90;;;;;;4930731;28;20153;-64
2023/04/09 03:27:33;;;;;;;34.28;18.75;;;4.20;99.90;;;;;;4948554;28;20042;-65
2023/04/09 03:30:01;;;;;;;30.80;17.05;;;4.30;99.90;;;;;;4935505;29;20038;-64
2023/04/09 03:32:34;;;;;;;32.97;16.63;;;4.30;99.90;;;;;;4934312;28;20069;-65
2023/04/09 03:35:00;;;;;;;28.27;15.75;;;4.30;99.90;;;;;;4933166;29;20790;-65
2023/04/09 03:37:27;;;;;;;28.30;16.15;;;4.20;99.90;;;;;;4933654;28;20404;-64
2023/04/09 03:39:53;;;;;;;25.60;14.57;;;4.20;99.90;;;;;;4953225;28;20100;-64
2023/04/09 03:42:21;;;;;;;24.27;13.50;;;4.20;99.90;;;;;;4935919;28;20031;-64
2023/04/09 03:44:48;;;;;;;24.17;14.07;;;4.10;99.90;;;;;;4950576;28;20090;-65
2023/04/09 03:47:22;;;;;;;25.42;13.75;;;4.00;99.90;;;;;;4937105;28;20027;-64
2023/04/09 03:49:49;;;;;;;26.90;14.77;;;3.90;99.90;;;;;;4939485;29;20123;-65
2023/04/09 03:52:22;;;;;;;25.20;14.32;;;3.80;99.90;;;;;;4934772;28;20038;-64
2023/04/09 03:54:57;;;;;;;23.05;13.40;;;3.80;99.90;;;;;;4935430;29;20035;-64
2023/04/09 03:57:24;;;;;;;24.83;14.95;;;3.80;99.90;;;;;;4933918;28;20722;-64
2023/04/09 03:59:52;;;;;;;24.92;14.10;;;3.70;99.90;;;;;;4935197;29;20118;-64
2023/04/09 04:02:20;;;;;;;24.17;13.23;;;3.70;99.90;;;;;;4934606;28;20019;-64
2023/04/09 04:04:55;;;;;;;27.38;14.07;;;3.70;99.90;;;;;;4936354;29;20190;-64
2023/04/09 04:07:23;;;;;;;25.95;12.77;;;3.60;99.90;;;;;;4947753;28;20023;-64
2023/04/09 04:09:57;;;;;;;22.52;12.85;;;3.60;99.90;;;;;;4936569;29;20035;-65
2023/04/09 04:12:23;;;;;;;25.60;12.75;;;3.50;99.90;;;;;;4953006;28;20039;-63
2023/04/09 04:15:09;;;;;;;28.05;13.85;;;3.40;99.90;;;;;;4946899;28;20667;-64
2023/04/09 04:17:49;;;;;;;25.15;12.13;;;3.40;99.90;;;;;;4944903;28;20058;-64
2023/04/09 04:20:26;;;;;;;25.30;13.35;;;3.30;99.90;;;;;;4941526;28;20034;-65
2023/04/09 04:22:59;;;;;;;26.63;13.90;;;3.30;99.90;;;;;;4941166;29;20066;-65
2023/04/09 04:25:25;;;;;;;23.85;12.63;;;3.30;99.90;;;;;;4961088;28;20201;-65
2023/04/09 04:27:53;;;;;;;25.63;12.43;;;3.20;99.90;;;;;;4940906;29;20034;-64
2023/04/09 04:30:22;;;;;;;24.70;13.98;;;3.20;99.90;;;;;;4937464;29;20501;-64
2023/04/09 04:33:03;;;;;;;27.73;12.95;;;3.20;99.90;;;;;;4938151;29;20134;-64
2023/04/09 04:35:37;;;;;;;26.35;14.30;;;3.20;99.90;;;;;;4952443;28;20262;-64
2023/04/09 04:38:05;;;;;;;26.67;14.18;;;3.20;99.90;;;;;;4945773;28;20090;-64
2023/04/09 04:40:35;;;;;;;30.13;15.68;;;3.10;99.90;;;;;;4939649;28;20031;-64
2023/04/09 04:43:01;;;;;;;26.08;14.70;;;3.10;99.90;;;;;;4936468;29;20031;-64
2023/04/09 04:45:27;;;;;;;24.73;14.00;;;3.10;99.90;;;;;;4934992;28;20122;-65
2023/04/09 04:47:59;;;;;;;29.48;15.57;;;3.20;99.90;;;;;;4935742;29;20031;-65
2023/04/09 04:50:25;;;;;;;31.17;14.88;;;3.20;99.90;;;;;;4952715;28;20702;-65
2023/04/09 04:53:06;;;;;;;33.38;17.95;;;3.30;99.90;;;;;;4934531;29;20050;-65
2023/04/09 04:55:39;;;;;;;38.55;19.95;;;3.30;99.90;;;;;;4936179;29;20031;-64
2023/04/09 04:58:08;;;;;;;31.08;17.05;;;3.40;99.90;;;;;;4935625;28;20529;-65
2023/04/09 05:00:42;;;;;;;31.23;15.80;;;3.50;99.90;;;;;;4951803;28;20038;-64
2023/04/09 05:03:07;;;;;;;25.75;15.00;;;3.60;99.90;;;;;;4952037;28;20389;-64
2023/04/09 05:05:53;;;;;;;24.15;13.02;;;3.60;99.90;;;;;;4939958;28;20053;-65
2023/04/09 05:08:20;;;;;;;21.20;12.18;;;3.70;99.90;;;;;;4931871;28;20043;-65
2023/04/09 05:10:50;;;;;;;19.58;11.40;;;3.80;99.90;;;;;;4934128;29;20032;-64
2023/04/09 05:13:18;;;;;;;19.23;11.10;;;3.90;99.90;;;;;;4949945;28;20031;-64
2023/04/09 05:15:44;;;;;;;17.17;10.50;;;4.00;99.90;;;;;;4948498;28;20031;-64
2023/04/09 05:18:10;;;;;;;18.77;10.70;;;4.00;99.90;;;;;;4934126;28;20039;-64
2023/04/09 05:20:37;;;;;;;22.98;12.27;;;4.10;99.90;;;;;;4949868;28;20118;-64
2023/04/09 05:23:09;;;;;;;16.45;10.50;;;4.20;99.90;;;;;;4934010;28;20053;-64
2023/04/09 05:25:39;;;;;;;16.75;10.63;;;4.30;99.90;;;;;;4946947;28;20038;-64
2023/04/09 05:28:10;;;;;;;19.92;10.75;;;4.30;99.90;;;;;;4933665;28;20142;-64
2023/04/09 05:30:37;;;;;;;17.02;10.70;;;4.40;99.90;;;;;;4949059;28;20035;-64
2023/04/09 05:33:03;;;;;;;22.15;11.55;;;4.50;99.90;;;;;;4931295;29;20059;-64
2023/04/09 05:35:30;;;;;;;62.05;15.40;;;4.50;99.90;;;;;;4916781;28;20531;-64
2023/04/09 05:37:58;;;;;;;25.33;13.07;;;4.60;99.90;;;;;;4951618;28;20086;-64
2023/04/09 05:40:24;;;;;;;23.70;12.80;;;4.60;99.90;;;;;;4931639;28;20142;-64
2023/04/09 05:42:51;;;;;;;16.80;10.18;;;4.60;99.90;;;;;;4932577;29;20039;-64
2023/04/09 05:45:27;;;;;;;15.65;9.90;;;4.70;99.90;;;;;;4931076;29;20038;-64
2023/04/09 05:47:53;;;;;;;16.15;9.77;;;4.70;99.90;;;;;;4932324;29;20058;-65
2023/04/09 05:50:21;;;;;;;18.40;10.20;;;4.80;99.90;;;;;;4932410;28;20035;-65
2023/04/09 05:52:50;;;;;;;32.33;11.05;;;4.80;99.90;;;;;;4934328;29;20038;-64
2023/04/09 05:55:16;;;;;;;36.25;11.40;;;4.90;99.90;;;;;;4945190;28;20067;-64
2023/04/09 05:57:47;;;;;;;16.88;10.20;;;5.00;99.90;;;;;;4929243;29;20094;-64
2023/04/09 06:00:14;;;;;;;16.38;10.40;;;5.00;99.90;;;;;;4929048;28;20046;-64
2023/04/09 06:02:42;;;;;;;20.88;13.35;;;5.10;99.90;;;;;;4947283;28;20419;-64
2023/04/09 06:05:08;;;;;;;25.95;11.70;;;5.10;99.90;;;;;;4930207;28;20236;-64
2023/04/09 06:07:34;;;;;;;15.90;10.50;;;5.30;99.90;;;;;;4932254;28;20031;-64
2023/04/09 06:10:01;;;;;;;16.42;9.93;;;5.30;99.90;;;;;;4930957;29;20042;-64
2023/04/09 06:12:26;;;;;;;17.92;10.65;;;5.40;99.90;;;;;;4949643;28;20035;-64
2023/04/09 06:14:52;;;;;;;15.63;10.23;;;5.40;99.90;;;;;;4931552;29;20032;-64
2023/04/09 06:17:18;;;;;;;16.58;9.75;;;5.50;99.90;;;;;;4945765;28;20028;-65
2023/04/09 06:19:44;;;;;;;15.65;9.35;;;5.50;99.90;;;;;;4929649;29;20077;-65
2023/04/09 06:22:10;;;;;;;14.80;8.90;;;5.60;99.90;;;;;;4946801;28;20086;-65
2023/04/09 06:24:35;;;;;;;22.35;10.45;;;5.60;99.90;;;;;;4948180;28;20039;-64
2023/04/09 06:27:01;;;;;;;17.33;9.00;;;5.70;99.90;;;;;;4948153;28;20062;-64
2023/04/09 06:29:27;;;;;;;14.57;9.43;;;5.70;99.90;;;;;;4948156;28;20059;-64
2023/04/09 06:31:53;;;;;;;13.85;9.43;;;5.70;99.90;;;;;;4948313;28;20629;-64
2023/04/09 06:34:18;;;;;;;13.43;8.77;;;5.70;99.90;;;;;;4939940;28;20042;-65
2023/04/09 06:36:44;;;;;;;29.15;10.30;;;5.80;99.90;;;;;;4930827;29;20039;-64
2023/04/09 06:39:10;;;;;;;19.63;9.57;;;5.80;99.90;;;;;;4940517;28;20035;-64
2023/04/09 06:41:36;;;;;;;17.08;9.45;;;5.90;99.90;;;;;;4934588;29;20074;-65
2023/04/09 06:44:10;;;;;;;14.88;8.85;;;5.90;99.90;;;;;;4937373;28;20019;-65
2023/04/09 06:46:36;;;;;;;14.02;8.82;;;6.00;99.90;;;;;;4950836;28;20058;-65
2023/04/09 06:49:02;;;;;;;25.00;10.73;;;6.00;99.90;;;;;;4950111;28;20547;-65
2023/04/09 06:51:28;;;;;;;21.73;10.25;;;6.10;99.90;;;;;;4950054;28;20046;-65
2023/04/09 06:53:53;;;;;;;28.67;11.95;;;6.10;99.90;;;;;;4949555;28;20099;-65
2023/04/09 06:56:19;;;;;;;13.98;9.82;;;6.20;99.90;;;;;;4945226;28;20048;-64
2023/04/09 06:58:46;;;;;;;35.40;11.85;;;6.20;99.90;;;;;;4950344;28;20035;-65
2023/04/09 07:01:11;;;;;;;14.60;10.10;;;6.30;99.90;;;;;;4949074;28;20046;-64
2023/04/09 07:03:37;;;;;;;23.25;10.63;;;6.30;99.90;;;;;;4948769;28;20043;-64
2023/04/09 07:06:03;;;;;;;18.73;11.05;;;6.40;99.90;;;;;;4952382;28;20043;-64
2023/04/09 07:08:29;;;;;;;15.73;10.00;;;6.50;99.90;;;;;;4952557;28;20752;-64
2023/04/09 07:10:55;;;;;;;15.48;10.20;;;6.70;99.90;;;;;;4953045;28;20034;-64
2023/04/09 07:13:20;;;;;;;15.32;10.20;;;6.80;99.90;;;;;;4949697;28;20035;-65
2023/04/09 07:15:46;;;;;;;18.73;11.68;;;7.10;99.90;;;;;;4951237;28;20456;-64
2023/04/09 07:18:12;;;;;;;14.93;10.23;;;7.20;99.90;;;;;;4944531;28;20660;-65
2023/04/09 07:20:38;;;;;;;14.55;9.30;;;7.30;99.90;;;;;;4949952;28;20080;-65
2023/04/09 07:23:04;;;;;;;12.77;8.85;;;7.40;99.90;;;;;;4951240;28;20035;-65
2023/04/09 07:25:29;;;;;;;12.20;8.73;;;7.40;99.90;;;;;;4950670;28;20031;-65
2023/04/09 07:27:55;;;;;;;12.65;8.48;;;7.40;99.70;;;;;;4946437;28;20029;-65
2023/04/09 07:30:22;;;;;;;12.93;8.45;;;7.40;99.90;;;;;;4949813;28;20138;-65
2023/04/09 07:32:47;;;;;;;29.20;10.43;;;7.50;99.90;;;;;;4950236;28;20483;-65
2023/04/09 07:35:13;;;;;;;17.80;10.15;;;7.50;99.70;;;;;;4949973;28;20035;-65
2023/04/09 07:37:39;;;;;;;30.45;10.05;;;7.50;99.50;;;;;;4949937;28;20129;-65
2023/04/09 07:40:05;;;;;;;14.50;9.05;;;7.50;99.00;;;;;;4950970;28;20031;-65
2023/04/09 07:42:31;;;;;;;14.00;9.27;;;7.50;99.00;;;;;;4949465;28;20662;-65
2023/04/09 07:44:57;;;;;;;16.10;10.63;;;7.50;99.90;;;;;;4949300;28;20041;-65
2023/04/09 07:47:23;;;;;;;13.90;9.60;;;7.60;99.70;;;;;;4931234;28;20027;-65
2023/04/09 07:49:49;;;;;;;14.25;9.02;;;7.60;99.90;;;;;;4950295;28;20392;-65
2023/04/09 07:52:15;;;;;;;19.63;9.13;;;7.70;99.90;;;;;;4945154;28;20102;-65
2023/04/09 07:54:40;;;;;;;13.88;9.20;;;7.90;99.90;;;;;;4947540;28;20434;-65
2023/04/09 07:57:06;;;;;;;14.57;9.73;;;8.00;99.30;;;;;;4948429;28;20043;-65
2023/04/09 07:59:33;;;;;;;14.32;9.15;;;8.10;99.60;;;;;;4947986;28;20038;-65
2023/04/09 08:01:59;;;;;;;14.23;9.63;;;8.20;99.80;;;;;;4949154;28;20438;-65
2023/04/09 08:04:25;;;;;;;13.40;8.70;;;8.20;99.40;;;;;;4948253;28;20048;-65
2023/04/09 08:06:52;;;;;;;15.18;9.35;;;8.30;99.00;;;;;;4948819;28;20046;-65
2023/04/09 08:09:19;;;;;;;14.07;9.23;;;8.30;99.20;;;;;;4947221;28;20699;-65
2023/04/09 08:11:46;;;;;;;14.18;8.90;;;8.40;99.30;;;;;;4947599;28;20062;-65
2023/04/09 08:14:13;;;;;;;17.98;11.82;;;8.50;99.50;;;;;;4949265;28;20028;-65
2023/04/09 08:16:43;;;;;;;15.70;9.95;;;8.70;99.30;;;;;;4949327;28;20143;-65
2023/04/09 08:19:09;;;;;;;21.23;10.35;;;8.80;98.90;;;;;;4949820;28;20375;-65
2023/04/09 08:21:42;;;;;;;18.08;11.02;;;8.80;98.90;;;;;;4948322;28;20102;-65
2023/04/09 08:24:10;;;;;;;20.73;12.23;;;8.80;98.60;;;;;;4949301;28;20043;-65
2023/04/09 08:26:36;;;;;;;20.30;11.65;;;8.90;98.90;;;;;;4949613;28;20027;-65
2023/04/09 08:29:02;;;;;;;21.33;11.68;;;8.90;98.60;;;;;;4948431;28;20039;-65
2023/04/09 08:31:28;;;;;;;18.33;11.35;;;9.00;98.00;;;;;;4946796;28;20061;-65
2023/04/09 08:33:54;;;;;;;20.25;12.30;;;9.00;98.50;;;;;;4947512;28;20061;-65
2023/04/09 08:36:20;;;;;;;28.38;16.02;;;9.00;99.30;;;;;;4949241;28;20035;-65
2023/04/09 08:38:46;;;;;;;23.90;14.02;;;9.10;99.20;;;;;;4949510;28;20090;-65
2023/04/09 08:41:19;;;;;;;25.00;13.43;;;9.20;98.80;;;;;;4949381;28;20050;-65
2023/04/09 08:43:47;;;;;;;21.73;12.50;;;9.20;98.60;;;;;;4949392;28;20392;-65
2023/04/09 08:46:15;;;;;;;22.55;13.55;;;9.20;98.60;;;;;;4949605;28;20090;-65
2023/04/09 08:48:43;;;;;;;21.92;12.50;;;9.30;98.70;;;;;;4955329;28;20011;-66
2023/04/09 08:51:12;;;;;;;22.58;14.02;;;9.40;98.80;;;;;;4958103;28;20439;-65
2023/04/09 08:53:41;;;;;;;28.38;15.27;;;9.50;99.00;;;;;;4957854;28;20035;-65
2023/04/09 08:56:07;;;;;;;25.58;14.77;;;9.80;98.30;;;;;;4952692;28;20267;-65
2023/04/09 08:58:33;;;;;;;23.30;14.38;;;10.00;97.70;;;;;;4948723;28;20299;-65
2023/04/09 09:00:59;;;;;;;25.58;15.18;;;10.20;97.60;;;;;;4951041;28;20133;-66
2023/04/09 09:03:24;;;;;;;27.85;14.93;;;10.40;97.10;;;;;;4950363;28;20591;-66
2023/04/09 09:05:50;;;;;;;26.15;15.27;;;10.50;96.20;;;;;;4948800;28;20023;-66
2023/04/09 09:08:23;;;;;;;22.25;14.00;;;10.50;96.40;;;;;;4949714;28;20400;-65
2023/04/09 09:10:49;;;;;;;23.35;14.05;;;10.70;96.30;;;;;;4947249;28;20119;-65
2023/04/09 09:13:23;;;;;;;22.58;13.93;;;10.70;96.00;;;;;;4950629;28;20142;-65
2023/04/09 09:15:55;;;;;;;25.33;15.77;;;10.80;96.40;;;;;;4949305;28;20121;-65
2023/04/09 09:18:41;;;;;;;31.95;17.98;;;10.90;95.70;;;;;;4949353;28;20782;-66
2023/04/09 09:21:15;;;;;;;29.35;17.50;;;11.00;95.10;;;;;;4946266;28;20094;-65
2023/04/09 09:23:41;;;;;;;30.17;16.65;;;11.10;95.40;;;;;;4942108;28;20117;-65
2023/04/09 09:26:17;;;;;;;27.75;16.67;;;11.30;95.80;;;;;;4945187;28;20122;-65
2023/04/09 09:28:47;;;;;;;28.80;17.40;;;11.60;94.50;;;;;;4946518;28;20035;-65
2023/04/09 09:31:15;;;;;;;33.33;18.35;;;11.80;94.10;;;;;;4947135;28;20575;-66
2023/04/09 09:33:41;;;;;;;28.67;18.90;;;12.00;93.70;;;;;;4931269;29;20057;-65
2023/04/09 09:36:10;;;;;;;29.45;19.02;;;12.00;93.10;;;;;;4944493;28;20035;-65
2023/04/09 09:38:56;;;;;;;30.65;17.67;;;12.10;92.70;;;;;;4942485;28;20043;-66
2023/04/09 09:41:23;;;;;;;26.63;16.25;;;12.20;92.70;;;;;;4944421;28;20039;-65
2023/04/09 09:43:49;;;;;;;31.88;18.85;;;12.40;92.70;;;;;;4946035;28;20035;-65
2023/04/09 09:46:16;;;;;;;30.92;17.92;;;12.70;92.50;;;;;;4947591;28;20027;-66
2023/04/09 09:48:45;;;;;;;32.15;19.83;;;13.20;92.00;;;;;;4946522;28;20063;-65
2023/04/09 09:51:12;;;;;;;33.20;20.80;;;13.90;90.50;;;;;;4946629;28;20395;-66
2023/04/09 09:53:40;;;;;;;32.50;19.55;;;14.60;87.40;;;;;;4944647;28;20158;-66
2023/04/09 09:56:17;;;;;;;30.38;19.42;;;15.20;85.10;;;;;;4943655;28;20583;-66
2023/04/09 09:58:55;;;;;;;27.52;18.80;;;15.80;83.00;;;;;;4945918;28;20580;-66
2023/04/09 10:01:25;;;;;;;30.17;19.30;;;16.10;77.80;;;;;;4942242;28;20063;-66
2023/04/09 10:03:52;;;;;;;32.05;20.77;;;16.00;78.20;;;;;;4944082;28;20031;-66
2023/04/09 10:06:18;;;;;;;34.45;22.27;;;16.00;79.20;;;;;;4946526;28;20039;-66
2023/04/09 10:08:47;;;;;;;29.42;20.05;;;16.20;77.20;;;;;;4940679;28;20031;-66
2023/04/09 10:11:13;;;;;;;32.47;19.98;;;16.00;73.70;;;;;;4943365;28;20047;-66
2023/04/09 10:13:51;;;;;;;29.60;20.08;;;15.70;76.40;;;;;;4944409;28;20038;-66
2023/04/09 10:16:19;;;;;;;31.90;20.55;;;15.50;78.30;;;;;;4945120;28;20054;-65
2023/04/09 10:18:45;;;;;;;29.60;20.13;;;15.50;79.00;;;;;;4941990;28;20031;-66
2023/04/09 10:21:34;;;;;;;32.58;20.63;;;15.50;78.30;;;;;;4944657;28;20082;-66
2023/04/09 10:24:04;;;;;;;32.80;21.17;;;15.90;76.90;;;;;;4943829;28;20042;-66
2023/04/09 10:26:39;;;;;;;30.77;20.77;;;16.30;74.70;;;;;;4946216;28;20071;-66
2023/04/09 10:29:13;;;;;;;31.75;20.98;;;16.60;73.60;;;;;;4944376;28;20031;-66
2023/04/09 10:32:05;;;;;;;27.88;19.02;;;16.50;70.70;;;;;;4942704;28;20460;-66
2023/04/09 10:34:41;;;;;;;30.95;20.60;;;16.40;73.20;;;;;;4942684;28;20062;-66
2023/04/09 10:37:08;;;;;;;32.33;21.88;;;16.40;72.60;;;;;;4937295;28;20046;-66
2023/04/09 10:39:46;;;;;;;36.05;22.67;;;16.30;74.30;;;;;;4946820;28;20046;-66
2023/04/09 10:42:31;;;;;;;31.42;21.33;;;16.30;73.10;;;;;;4943293;28;20031;-66
2023/04/09 10:45:08;;;;;;;34.10;21.38;;;16.50;74.40;;;;;;4945523;28;20059;-66
2023/04/09 10:47:40;;;;;;;32.17;20.33;;;16.70;71.50;;;;;;4943304;28;20023;-66
2023/04/09 10:50:31;;;;;;;34.38;21.75;;;16.90;66.70;;;;;;4934086;28;20031;-66
2023/04/09 10:52:59;;;;;;;35.72;23.38;;;16.90;70.70;;;;;;4942240;28;20039;-66
2023/04/09 10:55:35;;;;;;;37.00;24.38;;;16.90;72.90;;;;;;4945350;28;20154;-66
2023/04/09 10:58:01;;;;;;;;;;;16.70;70.20;;;;;;4942130;28;20043;-66
2023/04/09 11:00:27;;;;;;;;;;;16.50;72.30;;;;;;4951230;28;19922;-66
2023/04/09 11:03:03;;;;;;;35.45;23.27;;;16.70;71.70;;;;;;4947644;28;20472;-66
2023/04/09 11:05:29;;;;;;;38.33;24.48;;;17.30;70.60;;;;;;4950832;28;20438;-66
2023/04/09 11:08:04;;;;;;;41.05;25.25;;;17.80;66.90;;;;;;4945157;28;20039;-66
2023/04/09 11:10:34;;;;;;;35.85;23.02;;;18.20;65.10;;;;;;4945226;28;20039;-66
2023/04/09 11:13:00;;;;;;;37.15;24.55;;;17.70;65.60;;;;;;4944400;28;20155;-66
2023/04/09 11:15:26;;;;;;;34.55;23.17;;;17.30;68.10;;;;;;4943639;28;20026;-66
2023/04/09 11:17:52;;;;;;;38.22;23.70;;;16.70;69.50;;;;;;4943988;28;20195;-66
2023/04/09 11:20:24;;;;;;;33.72;23.42;;;16.20;70.20;;;;;;4945016;28;20118;-66
2023/04/09 11:22:54;;;;;;;38.50;23.58;;;15.70;73.90;;;;;;4924710;29;20024;-66
2023/04/09 11:25:29;;;;;;;38.60;23.67;;;15.40;76.80;;;;;;4945355;28;20036;-66
2023/04/09 11:27:55;;;;;;;36.45;23.77;;;15.20;75.80;;;;;;4941129;28;20031;-66
2023/04/09 11:30:21;;;;;;;35.80;23.25;;;14.90;80.30;;;;;;4944761;28;20380;-66
2023/04/09 11:32:47;;;;;;;35.67;22.63;;;14.80;77.30;;;;;;4943731;28;20038;-66
2023/04/09 11:35:16;;;;;;;34.97;22.83;;;14.70;75.60;;;;;;4944995;28;20504;-65
2023/04/09 11:37:43;;;;;;;32.72;21.45;;;14.60;73.90;;;;;;4944274;28;20742;-66
2023/04/09 11:40:19;;;;;;;32.55;20.08;;;14.60;74.10;;;;;;4945955;28;20103;-66
2023/04/09 11:42:48;;;;;;;38.88;23.15;;;14.60;71.50;;;;;;4926640;29;20118;-66
2023/04/09 11:45:15;;;;;;;36.28;23.02;;;14.50;73.40;;;;;;4944146;28;20542;-66
2023/04/09 11:47:42;;;;;;;36.80;22.85;;;14.50;78.00;;;;;;4943789;28;20027;-66
2023/04/09 11:50:09;;;;;;;37.67;22.33;;;14.50;77.90;;;;;;4948175;28;20037;-66
2023/04/09 11:52:35;;;;;;;33.20;20.17;;;14.60;76.40;;;;;;4946580;28;20094;-66
2023/04/09 11:55:03;;;;;;;34.70;23.30;;;14.60;77.10;;;;;;4947080;28;20043;-66
2023/04/09 11:57:44;;;;;;;37.67;23.20;;;14.60;78.00;;;;;;4945920;28;20046;-66
2023/04/09 12:00:15;;;;;;;41.28;27.55;;;14.70;80.40;;;;;;4945832;28;20129;-66
2023/04/09 12:02:46;;;;;;;37.65;23.67;;;14.70;82.70;;;;;;4946173;28;20027;-66
2023/04/09 12:05:24;;;;;;;37.20;23.13;;;14.70;79.20;;;;;;4947260;28;20491;-66
2023/04/09 12:07:50;;;;;;;32.97;20.85;;;14.60;79.60;;;;;;4945849;28;20031;-66
2023/04/09 12:10:17;;;;;;;37.60;24.50;;;14.50;80.90;;;;;;4947357;28;20043;-66
2023/04/09 12:12:46;;;;;;;38.70;25.75;;;14.50;82.20;;;;;;4945822;28;20031;-66
2023/04/09 12:15:20;;;;;;;37.85;25.00;;;14.50;84.80;;;;;;4948001;28;20717;-66
2023/04/09 12:17:48;;;;;;;39.30;24.73;;;14.50;82.30;;;;;;4944219;28;20034;-66
2023/04/09 12:20:25;;;;;;;39.97;24.77;;;14.70;80.30;;;;;;4944938;28;20042;-66
2023/04/09 12:22:50;;;;;;;32.78;21.45;;;14.70;83.30;;;;;;4944029;28;20539;-66
2023/04/09 12:25:16;;;;;;;32.95;20.40;;;14.70;81.30;;;;;;4946471;28;20110;-65
2023/04/09 12:27:42;;;;;;;32.90;21.10;;;14.80;79.10;;;;;;4946802;28;20023;-66
2023/04/09 12:30:09;;;;;;;33.90;21.02;;;14.70;82.80;;;;;;4944580;28;20907;-66
2023/04/09 12:32:35;;;;;;;31.38;20.48;;;14.70;77.90;;;;;;4947546;28;20492;-66
2023/04/09 12:35:01;;;;;;;32.90;20.73;;;14.70;79.90;;;;;;4942464;28;20095;-66
2023/04/09 12:37:27;;;;;;;38.67;24.52;;;14.70;80.50;;;;;;4941600;28;20043;-66
2023/04/09 12:39:53;;;;;;;32.88;21.00;;;14.70;80.10;;;;;;4948770;28;20042;-66
2023/04/09 12:42:19;;;;;;;30.55;18.83;;;14.80;78.60;;;;;;4944736;28;20130;-66
2023/04/09 12:44:45;;;;;;;30.20;19.27;;;14.70;78.90;;;;;;4943079;28;20038;-67